createdAt,value
2023-01-19T00:02:16.705Z,98283.28
2023-01-19T00:05:18.892Z,98289.56
2023-01-19T00:08:21.124Z,98291.44
2023-01-19T00:11:24.047Z,98292.38
2023-01-19T00:14:26.380Z,98302.84
2023-01-19T00:17:28.492Z,98307.13
2023-01-19T00:20:35.632Z,98307.03
2023-01-19T00:23:37.701Z,98305.72
2023-01-19T00:26:43.026Z,98320.31
2023-01-19T00:29:45.272Z,98328.44
2023-01-19T00:32:47.347Z,98331.16
2023-01-19T00:35:53.289Z,98327.59
2023-01-19T00:38:55.405Z,98344.88
2023-01-19T00:42:16.239Z,98355.22
2023-01-19T00:45:20.814Z,98366.19
2023-01-19T00:48:23.035Z,98365.56
2023-01-19T00:51:25.583Z,98365.44
2023-01-19T00:54:27.806Z,98366.19
2023-01-19T00:57:29.949Z,98352.66
2023-01-19T01:00:32.373Z,98357.72
2023-01-19T01:03:34.515Z,98365.81
2023-01-19T01:06:36.651Z,98365.81
2023-01-19T01:09:39.007Z,98378.06
2023-01-19T01:12:41.478Z,98379.84
2023-01-19T01:15:58.735Z,98375.44
2023-01-19T01:19:00.905Z,98378.19
2023-01-19T01:22:02.955Z,98388.72
2023-01-19T01:25:05.354Z,98392.16
2023-01-19T01:28:08.977Z,98393.75
2023-01-19T01:31:11.085Z,98400.87
2023-01-19T01:34:13.296Z,98402.63
2023-01-19T01:37:15.482Z,98403.38
2023-01-19T01:40:18.644Z,98399.09
2023-01-19T01:43:20.942Z,98377.53
2023-01-19T01:46:23.096Z,98368.00
2023-01-19T01:49:25.387Z,98362.03
2023-01-19T01:52:29.593Z,98358.47
2023-01-19T01:55:35.072Z,98355.03
2023-01-19T01:58:39.110Z,98365.47
2023-01-19T02:02:00.296Z,98389.00
2023-01-19T02:05:09.646Z,98400.41
2023-01-19T02:08:49.586Z,98414.97
2023-01-19T02:12:12.545Z,98426.44
2023-01-19T02:15:17.864Z,98432.53
2023-01-19T02:18:23.200Z,98432.53
2023-01-19T02:21:43.156Z,98437.84
2023-01-19T02:24:45.442Z,98421.22
2023-01-19T02:27:48.835Z,98420.59
2023-01-19T02:30:51.037Z,98412.16
2023-01-19T02:33:54.379Z,98417.31
2023-01-19T02:37:13.817Z,98427.03
2023-01-19T02:40:22.129Z,98447.16
2023-01-19T02:43:25.262Z,98443.66
2023-01-19T02:46:27.504Z,98445.44
2023-01-19T02:49:30.367Z,98444.78
2023-01-19T02:52:32.519Z,98437.66
2023-01-19T02:55:34.685Z,98430.31
2023-01-19T02:58:57.038Z,98429.00
2023-01-19T03:02:47.985Z,98430.56
2023-01-19T03:05:59.142Z,98425.03
2023-01-19T03:09:20.069Z,98435.84
2023-01-19T03:12:46.259Z,98441.97
2023-01-19T03:16:14.718Z,98431.94
2023-01-19T03:19:44.081Z,98456.44
2023-01-19T03:22:50.901Z,98474.28
2023-01-19T03:25:54.691Z,98475.50
2023-01-19T03:29:00.705Z,98482.72
2023-01-19T03:32:09.294Z,98483.72
2023-01-19T03:35:14.450Z,98484.72
2023-01-19T03:38:25.091Z,98496.69
2023-01-19T03:41:28.713Z,98481.03
2023-01-19T03:44:35.027Z,98475.63
2023-01-19T03:47:37.514Z,98476.91
2023-01-19T03:50:39.731Z,98466.03
2023-01-19T03:53:42.135Z,98465.50
2023-01-19T03:56:44.949Z,98477.75
2023-01-19T03:59:47.005Z,98490.72
2023-01-19T04:02:49.141Z,98470.09
2023-01-19T04:05:51.729Z,98467.66
2023-01-19T04:08:54.766Z,98478.09
2023-01-19T04:11:57.458Z,98473.97
2023-01-19T04:14:59.571Z,98476.72
2023-01-19T04:18:01.944Z,98470.69
2023-01-19T04:21:07.109Z,98482.88
2023-01-19T04:24:10.518Z,98494.19
2023-01-19T04:27:12.603Z,98497.56
2023-01-19T04:30:15.203Z,98507.22
2023-01-19T04:33:17.350Z,98516.88
2023-01-19T04:36:19.511Z,98526.53
2023-01-19T04:39:23.265Z,98534.50
2023-01-19T04:42:25.358Z,98519.72
2023-01-19T04:45:27.421Z,98518.12
2023-01-19T04:48:29.856Z,98522.41
2023-01-19T04:51:32.014Z,98519.72
2023-01-19T04:54:34.153Z,98522.41
2023-01-19T04:57:36.355Z,98536.41
2023-01-19T05:00:41.178Z,98521.72
2023-01-19T05:03:43.327Z,98509.53
2023-01-19T05:06:45.685Z,98531.16
2023-01-19T05:09:48.334Z,98549.38
2023-01-19T05:12:51.392Z,98546.78
2023-01-19T05:15:53.629Z,98555.50
2023-01-19T05:18:55.822Z,98555.59
2023-01-19T05:21:58.148Z,98542.56
2023-01-19T05:25:01.887Z,98553.81
2023-01-19T05:28:04.326Z,98566.06
2023-01-19T05:31:06.692Z,98572.19
2023-01-19T05:34:11.707Z,98561.69
2023-01-19T05:37:14.474Z,98560.00
2023-01-19T05:40:16.815Z,98561.00
2023-01-19T05:43:18.926Z,98549.16
2023-01-19T05:46:21.073Z,98546.59
2023-01-19T05:49:23.312Z,98540.63
2023-01-19T05:52:25.410Z,98552.06
2023-01-19T05:55:28.039Z,98561.59
2023-01-19T05:58:30.160Z,98560.03
2023-01-19T06:01:38.846Z,98561.84
2023-01-19T06:04:42.043Z,98557.56
2023-01-19T06:07:44.195Z,98562.91
2023-01-19T06:10:46.371Z,98562.09
2023-01-19T06:13:48.600Z,98555.03
2023-01-19T06:16:50.862Z,98570.63
2023-01-19T06:19:53.087Z,98571.31
2023-01-19T06:22:58.047Z,98572.16
2023-01-19T06:26:00.279Z,98565.00
2023-01-19T06:29:02.554Z,98577.56
2023-01-19T06:32:04.978Z,98576.78
2023-01-19T06:35:08.062Z,98588.97
2023-01-19T06:38:10.249Z,98594.03
2023-01-19T06:41:12.395Z,98603.34
2023-01-19T06:44:14.562Z,98625.97
2023-01-19T06:47:16.768Z,98618.16
2023-01-19T06:50:18.990Z,98618.16
2023-01-19T06:53:22.410Z,98621.75
2023-01-19T06:56:24.594Z,98609.59
2023-01-19T06:59:27.085Z,98602.66
2023-01-19T07:02:29.552Z,98593.88
2023-01-19T07:05:31.899Z,98594.84
2023-01-19T07:08:35.342Z,98603.50
2023-01-19T07:11:37.748Z,98608.72
2023-01-19T07:14:39.982Z,98612.19
2023-01-19T07:17:42.458Z,98637.47
2023-01-19T07:20:46.954Z,98664.34
2023-01-19T07:23:50.442Z,98658.28
2023-01-19T07:26:52.555Z,98654.84
2023-01-19T07:29:54.954Z,98669.53
2023-01-19T07:32:58.981Z,98685.19
2023-01-19T07:36:01.280Z,98694.75
2023-01-19T07:39:03.395Z,98694.75
2023-01-19T07:42:06.872Z,98692.16
2023-01-19T07:45:09.446Z,98691.31
2023-01-19T07:48:11.599Z,98679.91
2023-01-19T07:51:18.113Z,98678.06
2023-01-19T07:54:20.948Z,98679.12
2023-01-19T07:57:24.233Z,98689.41
2023-01-19T08:00:26.621Z,98701.50
2023-01-19T08:03:28.668Z,98706.69
2023-01-19T08:06:35.400Z,98698.06
2023-01-19T08:09:37.440Z,98689.31
2023-01-19T08:12:39.706Z,98686.72
2023-01-19T08:15:41.830Z,98690.25
2023-01-19T08:18:44.084Z,98703.50
2023-01-19T08:21:46.577Z,98718.81
2023-01-19T08:24:50.381Z,98718.97
2023-01-19T08:27:54.979Z,98727.69
2023-01-19T08:30:57.858Z,98734.66
2023-01-19T08:34:00.171Z,98735.50
2023-01-19T08:37:02.267Z,98738.66
2023-01-19T08:40:04.773Z,98749.06
2023-01-19T08:43:09.900Z,98758.50
2023-01-19T08:46:12.664Z,98746.41
2023-01-19T08:49:15.908Z,98741.13
2023-01-19T08:52:18.020Z,98743.81
2023-01-19T08:55:20.501Z,98761.13
2023-01-19T08:58:22.650Z,98752.41
2023-01-19T09:01:25.642Z,98761.59
2023-01-19T09:04:28.063Z,98766.81
2023-01-19T09:07:32.567Z,98764.34
2023-01-19T09:10:39.656Z,98772.31
2023-01-19T09:13:42.326Z,98778.91
2023-01-19T09:16:44.587Z,98783.84
2023-01-19T09:19:46.897Z,98784.53
2023-01-19T09:22:49.519Z,98788.13
2023-01-19T09:25:57.333Z,98794.13
2023-01-19T09:28:59.991Z,98800.12
2023-01-19T09:32:02.808Z,98803.41
2023-01-19T09:35:05.468Z,98803.28
2023-01-19T09:38:09.107Z,98802.13
2023-01-19T09:41:22.736Z,98796.84
2023-01-19T09:44:34.655Z,98801.97
2023-01-19T09:47:38.503Z,98793.88
2023-01-19T09:50:46.874Z,98789.28
2023-01-19T09:54:12.159Z,98804.13
2023-01-19T09:57:15.019Z,98797.75
2023-01-19T10:00:18.752Z,98803.78
2023-01-19T10:03:21.285Z,98809.59
2023-01-19T10:06:23.801Z,98813.06
2023-01-19T10:09:40.722Z,98810.25
2023-01-19T10:13:04.871Z,98819.28
2023-01-19T10:16:26.302Z,98824.72
2023-01-19T10:19:41.367Z,98823.62
2023-01-19T10:22:49.916Z,98828.66
2023-01-19T10:25:52.614Z,98839.12
2023-01-19T10:28:59.649Z,98845.97
2023-01-19T10:32:33.619Z,98838.09
2023-01-19T10:35:36.469Z,98848.44
2023-01-19T10:38:38.639Z,98845.69
2023-01-19T10:41:49.169Z,98852.91
2023-01-19T10:44:51.315Z,98852.66
2023-01-19T10:47:55.659Z,98857.87
2023-01-19T10:51:05.986Z,98877.94
2023-01-19T10:54:13.114Z,98879.81
2023-01-19T10:57:26.542Z,98877.50
2023-01-19T11:00:31.705Z,98888.66
2023-01-19T11:03:33.797Z,98891.50
2023-01-19T11:06:35.967Z,98895.25
2023-01-19T11:09:38.082Z,98903.28
2023-01-19T11:12:42.934Z,98907.00
2023-01-19T11:15:47.503Z,98907.72
2023-01-19T11:18:53.874Z,98914.41
2023-01-19T11:22:21.872Z,98916.50
2023-01-19T11:25:31.177Z,98929.53
2023-01-19T11:28:37.252Z,98926.59
2023-01-19T11:31:39.458Z,98935.34
2023-01-19T11:34:41.685Z,98933.78
2023-01-19T11:37:43.910Z,98941.59
2023-01-19T11:40:57.710Z,98946.28
2023-01-19T11:44:24.767Z,98946.53
2023-01-19T11:47:42.937Z,98944.13
2023-01-19T11:50:46.134Z,98953.47
2023-01-19T11:53:52.588Z,98960.44
2023-01-19T11:56:55.877Z,98966.41
2023-01-19T12:00:03.630Z,98959.63
2023-01-19T12:03:08.964Z,98962.16
2023-01-19T12:06:18.437Z,98950.38
2023-01-19T12:09:27.096Z,98947.91
2023-01-19T12:12:35.539Z,98948.56
2023-01-19T12:15:44.505Z,98950.25
2023-01-19T12:18:59.556Z,98962.94
2023-01-19T12:22:03.042Z,98974.47
2023-01-19T12:25:25.356Z,98979.56
2023-01-19T12:28:39.108Z,98996.59
2023-01-19T12:31:43.365Z,98996.22
2023-01-19T12:34:51.974Z,98987.16
2023-01-19T12:37:54.140Z,98995.69
2023-01-19T12:41:16.482Z,99005.97
2023-01-19T12:44:25.119Z,99016.59
2023-01-19T12:47:27.388Z,99014.25
2023-01-19T12:50:38.068Z,99017.69
2023-01-19T12:53:40.280Z,99020.78
2023-01-19T12:56:42.542Z,99030.06
2023-01-19T12:59:45.005Z,99017.75
2023-01-19T13:02:55.996Z,99017.63
2023-01-19T13:05:58.438Z,99018.25
2023-01-19T13:09:01.456Z,99015.50
2023-01-19T13:12:15.778Z,99020.09
2023-01-19T13:15:35.935Z,99016.47
2023-01-19T13:18:41.800Z,99022.44
2023-01-19T13:21:47.018Z,99023.31
2023-01-19T13:25:06.298Z,99039.66
2023-01-19T13:28:10.330Z,99057.81
2023-01-19T13:31:14.237Z,99061.13
2023-01-19T13:34:23.103Z,99068.12
2023-01-19T13:37:45.963Z,99069.78
2023-01-19T13:40:48.859Z,99074.00
2023-01-19T13:44:32.201Z,99085.31
2023-01-19T13:47:46.924Z,99105.88
2023-01-19T13:51:02.995Z,99104.13
2023-01-19T13:54:06.372Z,99099.66
2023-01-19T13:57:27.155Z,99101.25
2023-01-19T14:00:31.063Z,99103.81
2023-01-19T14:03:33.325Z,99096.94
2023-01-19T14:06:44.682Z,99093.28
2023-01-19T14:09:46.772Z,99109.78
2023-01-19T14:13:02.914Z,99118.41
2023-01-19T14:16:07.977Z,99130.66
2023-01-19T14:19:10.199Z,99128.97
2023-01-19T14:22:12.322Z,99125.44
2023-01-19T14:25:29.763Z,99113.44
2023-01-19T14:28:40.352Z,99105.00
2023-01-19T14:31:48.837Z,99108.38
2023-01-19T14:35:05.912Z,99100.69
2023-01-19T14:38:14.284Z,99102.44
2023-01-19T14:41:37.552Z,99098.91
2023-01-19T14:44:40.455Z,99116.19
2023-01-19T14:47:45.564Z,99113.41
2023-01-19T14:51:02.338Z,99108.25
2023-01-19T14:54:05.493Z,99110.34
2023-01-19T14:57:13.236Z,99116.31
2023-01-19T15:00:20.348Z,99113.72
2023-01-19T15:03:26.829Z,99110.38
2023-01-19T15:06:38.416Z,99117.56
2023-01-19T15:09:41.074Z,99118.13
2023-01-19T15:12:43.477Z,99128.06
2023-01-19T15:15:45.733Z,99127.66
2023-01-19T15:18:47.915Z,99128.88
2023-01-19T15:21:51.445Z,99136.19
2023-01-19T15:24:57.725Z,99147.75
2023-01-19T15:28:00.239Z,99162.69
2023-01-19T15:31:02.593Z,99166.34
2023-01-19T15:34:04.653Z,99170.72
2023-01-19T15:37:06.995Z,99186.31
2023-01-19T15:40:11.403Z,99196.59
2023-01-19T15:43:13.597Z,99212.16
2023-01-19T15:46:18.707Z,99219.12
2023-01-19T15:49:21.752Z,99219.91
2023-01-19T15:52:23.900Z,99221.72
2023-01-19T15:55:26.097Z,99219.12
2023-01-19T15:58:28.271Z,99221.59
2023-01-19T16:01:34.810Z,99220.69
2023-01-19T16:04:36.907Z,99229.28
2023-01-19T16:07:39.081Z,99237.03
2023-01-19T16:10:42.698Z,99235.28
2023-01-19T16:13:46.366Z,99229.19
2023-01-19T16:16:49.367Z,99229.22
2023-01-19T16:19:51.656Z,99213.56
2023-01-19T16:22:56.516Z,99221.38
2023-01-19T16:26:09.741Z,99219.53
2023-01-19T16:29:11.975Z,99224.75
2023-01-19T16:32:15.212Z,99216.09
2023-01-19T16:35:17.646Z,99209.13
2023-01-19T16:38:21.989Z,99202.19
2023-01-19T16:41:24.411Z,99192.75
2023-01-19T16:44:26.798Z,99194.63
2023-01-19T16:47:28.922Z,99191.28
2023-01-19T16:50:31.070Z,99198.41
2023-01-19T16:53:37.202Z,99208.22
2023-01-19T16:56:41.649Z,99209.34
2023-01-19T16:59:45.287Z,99207.00
2023-01-19T17:02:48.783Z,99205.53
2023-01-19T17:05:53.172Z,99210.94
2023-01-19T17:08:55.779Z,99221.75
2023-01-19T17:11:58.588Z,99222.69
2023-01-19T17:15:02.512Z,99232.34
2023-01-19T17:18:07.200Z,99221.88
2023-01-19T17:21:10.995Z,99224.56
2023-01-19T17:24:14.243Z,99232.03
2023-01-19T17:27:17.657Z,99231.53
2023-01-19T17:30:20.873Z,99249.75
2023-01-19T17:33:25.509Z,99268.13
2023-01-19T17:36:32.688Z,99279.41
2023-01-19T17:39:35.805Z,99289.81
2023-01-19T17:42:43.428Z,99300.28
2023-01-19T17:45:46.537Z,99302.91
2023-01-19T17:49:02.380Z,99318.62
2023-01-19T17:52:05.974Z,99319.59
2023-01-19T17:55:09.666Z,99321.44
2023-01-19T17:58:14.375Z,99325.00
2023-01-19T18:01:24.029Z,99330.31
2023-01-19T18:04:29.164Z,99325.31
2023-01-19T18:07:33.519Z,99329.81
2023-01-19T18:10:38.006Z,99314.44
2023-01-19T18:13:43.791Z,99322.34
2023-01-19T18:16:47.242Z,99316.41
2023-01-19T18:19:52.587Z,99297.53
2023-01-19T18:22:56.949Z,99290.72
2023-01-19T18:26:11.589Z,99287.34
2023-01-19T18:29:17.216Z,99282.41
2023-01-19T18:32:21.313Z,99286.03
2023-01-19T18:35:24.831Z,99285.09
2023-01-19T18:38:29.284Z,99285.84
2023-01-19T18:41:36.170Z,99277.41
2023-01-19T18:44:39.269Z,99275.81
2023-01-19T18:47:42.883Z,99272.50
2023-01-19T18:50:46.922Z,99271.69
2023-01-19T18:53:52.114Z,99270.19
2023-01-19T18:56:56.102Z,99278.88
2023-01-19T18:59:59.891Z,99278.16
2023-01-19T19:03:06.583Z,99283.13
2023-01-19T19:06:11.338Z,99280.47
2023-01-19T19:09:15.886Z,99285.56
2023-01-19T19:12:20.431Z,99292.44
2023-01-19T19:15:23.515Z,99295.06
2023-01-19T19:18:26.967Z,99292.47
2023-01-19T19:21:30.722Z,99297.81
2023-01-19T19:24:34.536Z,99312.72
2023-01-19T19:27:38.770Z,99310.47
2023-01-19T19:30:42.114Z,99309.94
2023-01-19T19:33:46.249Z,99306.56
2023-01-19T19:36:50.053Z,99306.78
2023-01-19T19:39:53.193Z,99305.09
2023-01-19T19:42:58.729Z,99297.34
2023-01-19T19:46:11.139Z,99302.69
2023-01-19T19:49:14.761Z,99309.63
2023-01-19T19:52:18.251Z,99315.81
2023-01-19T19:55:21.782Z,99309.03
2023-01-19T19:58:26.290Z,99313.31
2023-01-19T20:01:33.797Z,99314.28
2023-01-19T20:04:39.867Z,99309.09
2023-01-19T20:07:47.734Z,99310.03
2023-01-19T20:10:51.624Z,99313.56
2023-01-19T20:13:55.950Z,99314.53
2023-01-19T20:16:59.607Z,99322.31
2023-01-19T20:20:04.599Z,99326.75
2023-01-19T20:23:09.649Z,99325.94
2023-01-19T20:26:15.361Z,99324.47
2023-01-19T20:29:20.694Z,99339.16
2023-01-19T20:32:25.757Z,99344.47
2023-01-19T20:35:31.471Z,99343.63
2023-01-19T20:38:35.032Z,99346.34
2023-01-19T20:41:43.926Z,99344.59
2023-01-19T20:44:47.398Z,99354.13
2023-01-19T20:47:51.761Z,99364.56
2023-01-19T20:51:01.238Z,99364.59
2023-01-19T20:54:04.821Z,99364.72
2023-01-19T20:57:08.457Z,99370.84
2023-01-19T21:00:14.605Z,99363.19
2023-01-19T21:03:19.665Z,99364.94
2023-01-19T21:06:25.567Z,99372.72
2023-01-19T21:09:28.584Z,99364.09
2023-01-19T21:12:31.168Z,99357.94
2023-01-19T21:15:33.771Z,99365.78
2023-01-19T21:18:36.187Z,99372.72
2023-01-19T21:21:38.730Z,99377.91
2023-01-19T21:24:42.175Z,99384.97
2023-01-19T21:27:46.514Z,99386.66
2023-01-19T21:30:50.293Z,99389.28
2023-01-19T21:33:54.474Z,99384.97
2023-01-19T21:36:56.782Z,99394.56
2023-01-19T21:39:59.133Z,99384.19
2023-01-19T21:43:01.367Z,99390.31
2023-01-19T21:46:11.110Z,99392.03
2023-01-19T21:49:18.356Z,99404.09
2023-01-19T21:52:20.597Z,99402.41
2023-01-19T21:55:22.659Z,99411.09
2023-01-19T21:58:24.900Z,99410.25
2023-01-19T22:01:27.094Z,99412.03
2023-01-19T22:04:29.941Z,99416.66
2023-01-19T22:07:33.131Z,99397.72
2023-01-19T22:10:37.440Z,99378.81
2023-01-19T22:13:40.563Z,99371.94
2023-01-19T22:16:42.740Z,99365.00
2023-01-19T22:19:46.613Z,99359.69
2023-01-19T22:22:48.712Z,99355.22
2023-01-19T22:25:50.763Z,99356.97
2023-01-19T22:28:57.226Z,99364.75
2023-01-19T22:31:59.441Z,99373.59
2023-01-19T22:35:03.427Z,99386.69
2023-01-19T22:38:05.795Z,99408.22
2023-01-19T22:41:16.624Z,99415.50
2023-01-19T22:44:21.205Z,99420.88
2023-01-19T22:47:23.260Z,99405.47
2023-01-19T22:50:25.350Z,99394.13
2023-01-19T22:53:28.022Z,99396.59
2023-01-19T22:56:32.208Z,99387.81
2023-01-19T22:59:34.316Z,99365.16
2023-01-19T23:02:36.450Z,99353.75
2023-01-19T23:05:38.825Z,99338.06
2023-01-19T23:08:41.926Z,99343.84
2023-01-19T23:11:48.585Z,99342.59
2023-01-19T23:14:50.646Z,99332.97
2023-01-19T23:17:53.764Z,99323.41
2023-01-19T23:20:56.272Z,99333.75
2023-01-19T23:24:04.204Z,99342.41
2023-01-19T23:27:06.408Z,99339.00
2023-01-19T23:30:09.215Z,99341.59
2023-01-19T23:33:11.328Z,99343.38
2023-01-19T23:36:14.602Z,99343.38
2023-01-19T23:39:20.136Z,99341.69
2023-01-19T23:42:22.513Z,99355.50
2023-01-19T23:45:24.687Z,99358.13
2023-01-19T23:48:26.849Z,99351.31
2023-01-19T23:51:31.967Z,99351.41
2023-01-19T23:54:34.189Z,99344.56
2023-01-19T23:57:36.345Z,99345.44
